sensor_id;sensor_type;location;lat;lon;timestamp;temperature;humidity
39925;DHT22;25592;49.986;11.618;2023-12-04T00:01:00;-3.10;99.90
39925;DHT22;25592;49.986;11.618;2023-12-04T00:03:46;-3.10;99.90
39925;DHT22;25592;49.986;11.618;2023-12-04T00:06:31;-3.20;99.90
39925;DHT22;25592;49.986;11.618;2023-12-04T00:09:16;-3.20;99.90
39925;DHT22;25592;49.986;11.618;2023-12-04T00:12:02;-3.30;99.90
39925;DHT22;25592;49.986;11.618;2023-12-04T00:14:47;-3.30;99.90
39925;DHT22;25592;49.986;11.618;2023-12-04T00:17:33;-3.50;99.90
39925;DHT22;25592;49.986;11.618;2023-12-04T00:20:18;-3.60;99.90
39925;DHT22;25592;49.986;11.618;2023-12-04T00:23:04;-3.40;99.90
39925;DHT22;25592;49.986;11.618;2023-12-04T00:25:49;-3.50;99.90
39925;DHT22;25592;49.986;11.618;2023-12-04T00:28:39;-3.70;99.90
39925;DHT22;25592;49.986;11.618;2023-12-04T00:31:24;-3.90;99.90
39925;DHT22;25592;49.986;11.618;2023-12-04T00:34:10;-3.80;99.90
39925;DHT22;25592;49.986;11.618;2023-12-04T00:36:56;-3.60;99.90
39925;DHT22;25592;49.986;11.618;2023-12-04T00:39:42;-3.60;99.90
39925;DHT22;25592;49.986;11.618;2023-12-04T00:42:28;-3.70;99.90
39925;DHT22;25592;49.986;11.618;2023-12-04T00:45:13;-3.80;99.90
39925;DHT22;25592;49.986;11.618;2023-12-04T00:47:59;-3.80;99.90
39925;DHT22;25592;49.986;11.618;2023-12-04T00:50:44;-3.90;99.90
39925;DHT22;25592;49.986;11.618;2023-12-04T00:53:30;-3.80;99.90
39925;DHT22;25592;49.986;11.618;2023-12-04T00:56:15;-3.80;99.90
39925;DHT22;25592;49.986;11.618;2023-12-04T00:59:01;-3.90;99.90
39925;DHT22;25592;49.986;11.618;2023-12-04T01:01:46;-3.70;99.90
39925;DHT22;25592;49.986;11.618;2023-12-04T01:04:32;-3.70;99.90
39925;DHT22;25592;49.986;11.618;2023-12-04T01:07:17;-3.90;99.90
39925;DHT22;25592;49.986;11.618;2023-12-04T01:10:04;-3.90;99.90
39925;DHT22;25592;49.986;11.618;2023-12-04T01:12:49;-3.80;99.90
39925;DHT22;25592;49.986;11.618;2023-12-04T01:15:35;-4.00;99.90
39925;DHT22;25592;49.986;11.618;2023-12-04T01:18:21;-3.90;99.90
39925;DHT22;25592;49.986;11.618;2023-12-04T01:21:07;-3.80;99.90
39925;DHT22;25592;49.986;11.618;2023-12-04T01:23:54;-3.90;99.90
39925;DHT22;25592;49.986;11.618;2023-12-04T01:26:39;-3.90;99.90
39925;DHT22;25592;49.986;11.618;2023-12-04T01:29:25;-4.00;99.90
39925;DHT22;25592;49.986;11.618;2023-12-04T01:32:10;-4.00;99.90
39925;DHT22;25592;49.986;11.618;2023-12-04T01:34:55;-3.90;99.90
39925;DHT22;25592;49.986;11.618;2023-12-04T01:37:41;-3.90;99.90
39925;DHT22;25592;49.986;11.618;2023-12-04T01:40:26;-3.70;99.90
39925;DHT22;25592;49.986;11.618;2023-12-04T01:43:12;-3.50;99.90
39925;DHT22;25592;49.986;11.618;2023-12-04T01:45:59;-3.50;99.90
39925;DHT22;25592;49.986;11.618;2023-12-04T01:48:45;-3.40;99.90
39925;DHT22;25592;49.986;11.618;2023-12-04T01:51:32;-3.50;99.90
39925;DHT22;25592;49.986;11.618;2023-12-04T01:54:18;-3.50;99.90
39925;DHT22;25592;49.986;11.618;2023-12-04T01:57:04;-3.40;99.90
39925;DHT22;25592;49.986;11.618;2023-12-04T01:59:50;-3.40;99.90
39925;DHT22;25592;49.986;11.618;2023-12-04T02:02:40;-3.20;99.90
39925;DHT22;25592;49.986;11.618;2023-12-04T02:05:27;-3.00;99.90
39925;DHT22;25592;49.986;11.618;2023-12-04T02:08:13;-3.10;99.90
39925;DHT22;25592;49.986;11.618;2023-12-04T02:10:59;-3.00;99.90
39925;DHT22;25592;49.986;11.618;2023-12-04T02:13:45;-3.00;99.90
39925;DHT22;25592;49.986;11.618;2023-12-04T02:16:31;-3.20;99.90
39925;DHT22;25592;49.986;11.618;2023-12-04T02:19:17;-3.20;99.90
39925;DHT22;25592;49.986;11.618;2023-12-04T02:22:02;-3.10;99.90
39925;DHT22;25592;49.986;11.618;2023-12-04T02:24:48;-3.40;99.90
39925;DHT22;25592;49.986;11.618;2023-12-04T02:27:44;-3.30;99.90
39925;DHT22;25592;49.986;11.618;2023-12-04T02:30:34;-3.10;99.90
39925;DHT22;25592;49.986;11.618;2023-12-04T02:33:23;-2.90;99.90
39925;DHT22;25592;49.986;11.618;2023-12-04T02:36:10;-2.80;99.90
39925;DHT22;25592;49.986;11.618;2023-12-04T02:38:57;-2.70;99.90
39925;DHT22;25592;49.986;11.618;2023-12-04T02:41:43;-2.60;99.90
39925;DHT22;25592;49.986;11.618;2023-12-04T02:44:28;-2.50;99.90
39925;DHT22;25592;49.986;11.618;2023-12-04T02:47:15;-2.40;99.90
39925;DHT22;25592;49.986;11.618;2023-12-04T02:50:00;-2.20;99.90
39925;DHT22;25592;49.986;11.618;2023-12-04T02:52:46;-2.00;99.90
39925;DHT22;25592;49.986;11.618;2023-12-04T02:55:31;-2.00;99.90
39925;DHT22;25592;49.986;11.618;2023-12-04T02:58:16;-1.80;99.60
39925;DHT22;25592;49.986;11.618;2023-12-04T03:01:02;-1.70;99.30
39925;DHT22;25592;49.986;11.618;2023-12-04T03:03:47;-1.80;98.70
39925;DHT22;25592;49.986;11.618;2023-12-04T03:06:33;-1.90;99.30
39925;DHT22;25592;49.986;11.618;2023-12-04T03:09:18;-2.20;98.60
39925;DHT22;25592;49.986;11.618;2023-12-04T03:12:04;-2.40;99.50
39925;DHT22;25592;49.986;11.618;2023-12-04T03:14:50;-2.70;99.60
39925;DHT22;25592;49.986;11.618;2023-12-04T03:17:35;-2.70;99.90
39925;DHT22;25592;49.986;11.618;2023-12-04T03:20:21;-2.70;99.90
39925;DHT22;25592;49.986;11.618;2023-12-04T03:23:06;-2.70;99.90
39925;DHT22;25592;49.986;11.618;2023-12-04T03:25:52;-2.60;99.90
39925;DHT22;25592;49.986;11.618;2023-12-04T03:28:38;-2.50;99.90
39925;DHT22;25592;49.986;11.618;2023-12-04T03:31:24;-2.40;99.90
39925;DHT22;25592;49.986;11.618;2023-12-04T03:34:10;-2.20;99.90
39925;DHT22;25592;49.986;11.618;2023-12-04T03:36:55;-2.10;99.90
39925;DHT22;25592;49.986;11.618;2023-12-04T03:39:41;-2.00;99.90
39925;DHT22;25592;49.986;11.618;2023-12-04T03:42:26;-2.00;99.80
39925;DHT22;25592;49.986;11.618;2023-12-04T03:45:12;-2.00;99.90
39925;DHT22;25592;49.986;11.618;2023-12-04T03:47:57;-2.20;99.90
39925;DHT22;25592;49.986;11.618;2023-12-04T03:50:42;-2.40;99.90
39925;DHT22;25592;49.986;11.618;2023-12-04T03:53:28;-2.40;99.90
39925;DHT22;25592;49.986;11.618;2023-12-04T03:56:13;-2.40;99.90
39925;DHT22;25592;49.986;11.618;2023-12-04T03:58:59;-2.70;99.90
39925;DHT22;25592;49.986;11.618;2023-12-04T04:01:44;-2.70;99.90
39925;DHT22;25592;49.986;11.618;2023-12-04T04:04:30;-2.70;99.90
39925;DHT22;25592;49.986;11.618;2023-12-04T04:07:16;-2.50;99.90
39925;DHT22;25592;49.986;11.618;2023-12-04T04:10:03;-2.20;99.90
39925;DHT22;25592;49.986;11.618;2023-12-04T04:12:49;-2.10;99.90
39925;DHT22;25592;49.986;11.618;2023-12-04T04:15:35;-1.90;99.90
39925;DHT22;25592;49.986;11.618;2023-12-04T04:18:20;-1.90;99.80
39925;DHT22;25592;49.986;11.618;2023-12-04T04:21:06;-2.10;99.80
39925;DHT22;25592;49.986;11.618;2023-12-04T04:23:51;-1.90;99.90
39925;DHT22;25592;49.986;11.618;2023-12-04T04:26:38;-1.90;99.60
39925;DHT22;25592;49.986;11.618;2023-12-04T04:29:23;-2.00;99.60
39925;DHT22;25592;49.986;11.618;2023-12-04T04:32:09;-1.90;99.90
39925;DHT22;25592;49.986;11.618;2023-12-04T04:34:58;-1.80;99.90
39925;DHT22;25592;49.986;11.618;2023-12-04T04:37:44;-1.70;99.90
39925;DHT22;25592;49.986;11.618;2023-12-04T04:40:31;-1.50;99.60
39925;DHT22;25592;49.986;11.618;2023-12-04T04:43:17;-1.50;99.50
39925;DHT22;25592;49.986;11.618;2023-12-04T04:46:02;-1.40;99.20
39925;DHT22;25592;49.986;11.618;2023-12-04T04:48:48;-1.40;99.00
39925;DHT22;25592;49.986;11.618;2023-12-04T04:51:34;-1.40;99.30
39925;DHT22;25592;49.986;11.618;2023-12-04T04:54:20;-1.30;98.70
39925;DHT22;25592;49.986;11.618;2023-12-04T04:57:05;-1.30;98.80
39925;DHT22;25592;49.986;11.618;2023-12-04T04:59:51;-1.30;98.80
39925;DHT22;25592;49.986;11.618;2023-12-04T05:02:36;-1.20;98.90
39925;DHT22;25592;49.986;11.618;2023-12-04T05:05:22;-1.20;98.70
39925;DHT22;25592;49.986;11.618;2023-12-04T05:08:07;-1.10;98.70
39925;DHT22;25592;49.986;11.618;2023-12-04T05:10:53;-1.20;98.70
39925;DHT22;25592;49.986;11.618;2023-12-04T05:13:39;-1.10;98.50
39925;DHT22;25592;49.986;11.618;2023-12-04T05:16:24;-1.10;98.40
39925;DHT22;25592;49.986;11.618;2023-12-04T05:19:10;-1.10;98.70
39925;DHT22;25592;49.986;11.618;2023-12-04T05:21:55;-1.00;98.60
39925;DHT22;25592;49.986;11.618;2023-12-04T05:24:41;-1.00;98.40
39925;DHT22;25592;49.986;11.618;2023-12-04T05:27:26;-1.00;98.60
39925;DHT22;25592;49.986;11.618;2023-12-04T05:30:12;-1.10;98.30
39925;DHT22;25592;49.986;11.618;2023-12-04T05:32:57;-1.00;98.60
39925;DHT22;25592;49.986;11.618;2023-12-04T05:35:43;-1.00;98.20
39925;DHT22;25592;49.986;11.618;2023-12-04T05:38:28;-1.00;98.40
39925;DHT22;25592;49.986;11.618;2023-12-04T05:41:14;-1.00;98.10
39925;DHT22;25592;49.986;11.618;2023-12-04T05:43:59;-1.10;98.00
39925;DHT22;25592;49.986;11.618;2023-12-04T05:46:45;-1.10;98.00
39925;DHT22;25592;49.986;11.618;2023-12-04T05:49:31;-1.10;98.20
39925;DHT22;25592;49.986;11.618;2023-12-04T05:52:18;-1.10;98.10
39925;DHT22;25592;49.986;11.618;2023-12-04T05:55:04;-1.10;97.90
39925;DHT22;25592;49.986;11.618;2023-12-04T05:57:49;-1.10;98.30
39925;DHT22;25592;49.986;11.618;2023-12-04T06:00:35;-1.10;97.90
39925;DHT22;25592;49.986;11.618;2023-12-04T06:03:20;-1.10;98.10
39925;DHT22;25592;49.986;11.618;2023-12-04T06:06:06;-1.10;98.30
39925;DHT22;25592;49.986;11.618;2023-12-04T06:08:51;-1.00;98.30
39925;DHT22;25592;49.986;11.618;2023-12-04T06:11:37;-1.00;98.20
39925;DHT22;25592;49.986;11.618;2023-12-04T06:14:23;-0.90;99.10
39925;DHT22;25592;49.986;11.618;2023-12-04T06:17:08;-0.90;98.20
39925;DHT22;25592;49.986;11.618;2023-12-04T06:19:54;-0.90;98.60
39925;DHT22;25592;49.986;11.618;2023-12-04T06:22:39;-0.90;98.10
39925;DHT22;25592;49.986;11.618;2023-12-04T06:25:25;-1.00;97.70
39925;DHT22;25592;49.986;11.618;2023-12-04T06:28:11;-1.00;98.70
39925;DHT22;25592;49.986;11.618;2023-12-04T06:30:57;-1.10;98.30
39925;DHT22;25592;49.986;11.618;2023-12-04T06:33:42;-1.10;98.40
39925;DHT22;25592;49.986;11.618;2023-12-04T06:36:31;-1.10;98.60
39925;DHT22;25592;49.986;11.618;2023-12-04T06:39:20;-1.10;98.60
39925;DHT22;25592;49.986;11.618;2023-12-04T06:42:07;-1.00;98.80
39925;DHT22;25592;49.986;11.618;2023-12-04T06:44:53;-1.00;98.10
39925;DHT22;25592;49.986;11.618;2023-12-04T06:47:40;-1.10;98.00
39925;DHT22;25592;49.986;11.618;2023-12-04T06:50:26;-1.00;98.40
39925;DHT22;25592;49.986;11.618;2023-12-04T06:53:11;-0.90;98.20
39925;DHT22;25592;49.986;11.618;2023-12-04T06:55:56;-0.90;98.00
39925;DHT22;25592;49.986;11.618;2023-12-04T06:58:42;-0.90;98.00
39925;DHT22;25592;49.986;11.618;2023-12-04T07:01:27;-0.90;98.00
39925;DHT22;25592;49.986;11.618;2023-12-04T07:04:13;-0.90;98.10
39925;DHT22;25592;49.986;11.618;2023-12-04T07:06:59;-0.90;97.30
39925;DHT22;25592;49.986;11.618;2023-12-04T07:09:50;-0.90;98.30
39925;DHT22;25592;49.986;11.618;2023-12-04T07:12:35;-0.90;98.60
39925;DHT22;25592;49.986;11.618;2023-12-04T07:15:20;-0.80;98.20
39925;DHT22;25592;49.986;11.618;2023-12-04T07:18:06;-0.80;97.40
39925;DHT22;25592;49.986;11.618;2023-12-04T07:20:51;-0.80;97.70
39925;DHT22;25592;49.986;11.618;2023-12-04T07:23:37;-0.80;98.00
39925;DHT22;25592;49.986;11.618;2023-12-04T07:26:22;-0.80;97.60
39925;DHT22;25592;49.986;11.618;2023-12-04T07:29:08;-0.90;97.00
39925;DHT22;25592;49.986;11.618;2023-12-04T07:31:53;-0.80;98.80
39925;DHT22;25592;49.986;11.618;2023-12-04T07:34:39;-0.70;97.60
39925;DHT22;25592;49.986;11.618;2023-12-04T07:37:24;-0.80;97.30
39925;DHT22;25592;49.986;11.618;2023-12-04T07:40:10;-0.70;97.70
39925;DHT22;25592;49.986;11.618;2023-12-04T07:42:56;-0.60;97.70
39925;DHT22;25592;49.986;11.618;2023-12-04T07:45:42;-0.60;97.40
39925;DHT22;25592;49.986;11.618;2023-12-04T07:48:27;-0.60;97.40
39925;DHT22;25592;49.986;11.618;2023-12-04T07:51:14;-0.50;97.50
39925;DHT22;25592;49.986;11.618;2023-12-04T07:54:00;-0.50;97.20
39925;DHT22;25592;49.986;11.618;2023-12-04T07:56:48;-0.50;97.30
39925;DHT22;25592;49.986;11.618;2023-12-04T07:59:33;-0.50;97.00
39925;DHT22;25592;49.986;11.618;2023-12-04T08:02:20;-0.40;96.90
39925;DHT22;25592;49.986;11.618;2023-12-04T08:05:05;-0.40;97.00
39925;DHT22;25592;49.986;11.618;2023-12-04T08:07:51;-0.30;97.10
39925;DHT22;25592;49.986;11.618;2023-12-04T08:10:37;-0.30;97.00
39925;DHT22;25592;49.986;11.618;2023-12-04T08:13:22;-0.30;96.70
39925;DHT22;25592;49.986;11.618;2023-12-04T08:16:14;-0.50;95.80
39925;DHT22;25592;49.986;11.618;2023-12-04T08:19:00;-0.40;96.90
39925;DHT22;25592;49.986;11.618;2023-12-04T08:21:45;-0.30;96.90
39925;DHT22;25592;49.986;11.618;2023-12-04T08:24:31;-0.30;96.80
39925;DHT22;25592;49.986;11.618;2023-12-04T08:27:17;-0.30;96.30
39925;DHT22;25592;49.986;11.618;2023-12-04T08:30:04;-0.30;96.20
39925;DHT22;25592;49.986;11.618;2023-12-04T08:32:50;-0.20;96.30
39925;DHT22;25592;49.986;11.618;2023-12-04T08:35:35;-0.10;96.70
39925;DHT22;25592;49.986;11.618;2023-12-04T08:38:21;-0.10;96.70
39925;DHT22;25592;49.986;11.618;2023-12-04T08:41:06;0.00;96.60
39925;DHT22;25592;49.986;11.618;2023-12-04T08:43:52;0.00;96.40
39925;DHT22;25592;49.986;11.618;2023-12-04T08:46:37;0.00;96.40
39925;DHT22;25592;49.986;11.618;2023-12-04T08:49:23;0.10;96.20
39925;DHT22;25592;49.986;11.618;2023-12-04T08:52:12;0.00;95.70
39925;DHT22;25592;49.986;11.618;2023-12-04T08:54:57;0.00;96.00
39925;DHT22;25592;49.986;11.618;2023-12-04T08:57:42;0.00;95.90
39925;DHT22;25592;49.986;11.618;2023-12-04T09:00:28;-0.20;95.30
39925;DHT22;25592;49.986;11.618;2023-12-04T09:03:13;-0.20;95.60
39925;DHT22;25592;49.986;11.618;2023-12-04T09:06:10;-0.10;96.10
39925;DHT22;25592;49.986;11.618;2023-12-04T09:08:55;0.00;96.20
39925;DHT22;25592;49.986;11.618;2023-12-04T09:11:51;0.10;96.00
39925;DHT22;25592;49.986;11.618;2023-12-04T09:14:36;0.10;96.10
39925;DHT22;25592;49.986;11.618;2023-12-04T09:17:22;0.20;96.10
39925;DHT22;25592;49.986;11.618;2023-12-04T09:20:11;0.20;95.90
39925;DHT22;25592;49.986;11.618;2023-12-04T09:22:57;0.30;96.10
39925;DHT22;25592;49.986;11.618;2023-12-04T09:25:52;0.30;95.80
39925;DHT22;25592;49.986;11.618;2023-12-04T09:28:37;0.40;96.00
39925;DHT22;25592;49.986;11.618;2023-12-04T09:31:23;0.50;95.90
39925;DHT22;25592;49.986;11.618;2023-12-04T09:34:09;0.60;95.50
39925;DHT22;25592;49.986;11.618;2023-12-04T09:36:54;0.50;95.10
39925;DHT22;25592;49.986;11.618;2023-12-04T09:39:52;0.70;95.50
39925;DHT22;25592;49.986;11.618;2023-12-04T09:42:39;0.80;95.60
39925;DHT22;25592;49.986;11.618;2023-12-04T09:45:24;0.90;95.10
39925;DHT22;25592;49.986;11.618;2023-12-04T09:48:11;0.90;94.90
39925;DHT22;25592;49.986;11.618;2023-12-04T09:50:57;1.00;95.20
39925;DHT22;25592;49.986;11.618;2023-12-04T09:53:47;1.00;95.40
39925;DHT22;25592;49.986;11.618;2023-12-04T09:56:36;1.20;95.20
39925;DHT22;25592;49.986;11.618;2023-12-04T09:59:24;1.10;94.20
39925;DHT22;25592;49.986;11.618;2023-12-04T10:02:11;1.00;94.80
39925;DHT22;25592;49.986;11.618;2023-12-04T10:04:57;1.10;94.80
39925;DHT22;25592;49.986;11.618;2023-12-04T10:07:42;1.20;94.40
39925;DHT22;25592;49.986;11.618;2023-12-04T10:10:28;1.40;94.50
39925;DHT22;25592;49.986;11.618;2023-12-04T10:13:14;1.40;94.40
39925;DHT22;25592;49.986;11.618;2023-12-04T10:16:33;1.50;94.50
39925;DHT22;25592;49.986;11.618;2023-12-04T10:19:24;1.50;94.20
39925;DHT22;25592;49.986;11.618;2023-12-04T10:22:14;1.40;93.80
39925;DHT22;25592;49.986;11.618;2023-12-04T10:25:14;1.40;94.40
39925;DHT22;25592;49.986;11.618;2023-12-04T10:28:08;1.50;94.40
39925;DHT22;25592;49.986;11.618;2023-12-04T10:30:54;1.60;94.40
39925;DHT22;25592;49.986;11.618;2023-12-04T10:33:40;1.50;94.60
39925;DHT22;25592;49.986;11.618;2023-12-04T10:36:26;1.70;94.40
39925;DHT22;25592;49.986;11.618;2023-12-04T10:39:11;1.70;94.30
39925;DHT22;25592;49.986;11.618;2023-12-04T10:41:59;1.70;93.40
39925;DHT22;25592;49.986;11.618;2023-12-04T10:44:46;1.60;93.50
39925;DHT22;25592;49.986;11.618;2023-12-04T10:47:32;1.40;93.80
39925;DHT22;25592;49.986;11.618;2023-12-04T10:50:19;1.50;93.70
39925;DHT22;25592;49.986;11.618;2023-12-04T10:53:06;1.50;93.90
39925;DHT22;25592;49.986;11.618;2023-12-04T10:55:54;1.60;94.00
39925;DHT22;25592;49.986;11.618;2023-12-04T10:58:41;1.50;93.80
39925;DHT22;25592;49.986;11.618;2023-12-04T11:01:27;1.40;93.70
39925;DHT22;25592;49.986;11.618;2023-12-04T11:04:16;1.30;94.00
39925;DHT22;25592;49.986;11.618;2023-12-04T11:07:04;1.40;94.20
39925;DHT22;25592;49.986;11.618;2023-12-04T11:09:51;1.50;94.30
39925;DHT22;25592;49.986;11.618;2023-12-04T11:12:39;1.60;94.10
39925;DHT22;25592;49.986;11.618;2023-12-04T11:15:29;1.40;93.50
39925;DHT22;25592;49.986;11.618;2023-12-04T11:18:16;1.50;94.20
39925;DHT22;25592;49.986;11.618;2023-12-04T11:21:10;1.50;93.60
39925;DHT22;25592;49.986;11.618;2023-12-04T11:23:56;1.60;93.70
39925;DHT22;25592;49.986;11.618;2023-12-04T11:26:44;1.70;93.80
39925;DHT22;25592;49.986;11.618;2023-12-04T11:29:30;2.10;93.60
39925;DHT22;25592;49.986;11.618;2023-12-04T11:32:16;2.30;93.50
39925;DHT22;25592;49.986;11.618;2023-12-04T11:35:02;2.50;92.60
39925;DHT22;25592;49.986;11.618;2023-12-04T11:37:58;2.50;92.80
39925;DHT22;25592;49.986;11.618;2023-12-04T11:40:45;2.40;93.60
39925;DHT22;25592;49.986;11.618;2023-12-04T11:43:32;2.40;93.00
39925;DHT22;25592;49.986;11.618;2023-12-04T11:46:22;2.40;92.80
39925;DHT22;25592;49.986;11.618;2023-12-04T11:49:27;2.40;93.20
39925;DHT22;25592;49.986;11.618;2023-12-04T11:52:14;2.40;92.90
39925;DHT22;25592;49.986;11.618;2023-12-04T11:55:02;2.30;93.00
39925;DHT22;25592;49.986;11.618;2023-12-04T11:57:51;2.20;93.30
39925;DHT22;25592;49.986;11.618;2023-12-04T12:00:38;2.20;93.40
39925;DHT22;25592;49.986;11.618;2023-12-04T12:03:24;2.10;93.40
39925;DHT22;25592;49.986;11.618;2023-12-04T12:06:09;2.10;93.80
39925;DHT22;25592;49.986;11.618;2023-12-04T12:08:56;2.10;94.90
39925;DHT22;25592;49.986;11.618;2023-12-04T12:11:41;2.30;95.00
39925;DHT22;25592;49.986;11.618;2023-12-04T12:14:28;2.30;94.20
39925;DHT22;25592;49.986;11.618;2023-12-04T12:17:13;2.30;94.30
39925;DHT22;25592;49.986;11.618;2023-12-04T12:19:59;2.20;93.80
39925;DHT22;25592;49.986;11.618;2023-12-04T12:22:44;2.30;94.20
39925;DHT22;25592;49.986;11.618;2023-12-04T12:25:31;2.20;93.90
39925;DHT22;25592;49.986;11.618;2023-12-04T12:28:16;2.10;94.10
39925;DHT22;25592;49.986;11.618;2023-12-04T12:31:03;2.20;94.10
39925;DHT22;25592;49.986;11.618;2023-12-04T12:33:51;2.10;93.90
39925;DHT22;25592;49.986;11.618;2023-12-04T12:36:37;2.00;94.10
39925;DHT22;25592;49.986;11.618;2023-12-04T12:39:23;1.80;94.10
39925;DHT22;25592;49.986;11.618;2023-12-04T12:42:09;1.60;94.10
39925;DHT22;25592;49.986;11.618;2023-12-04T12:44:55;1.50;94.40
39925;DHT22;25592;49.986;11.618;2023-12-04T12:47:42;1.30;94.50
39925;DHT22;25592;49.986;11.618;2023-12-04T12:50:28;1.10;94.50
39925;DHT22;25592;49.986;11.618;2023-12-04T12:53:14;1.10;94.90
39925;DHT22;25592;49.986;11.618;2023-12-04T12:56:00;1.00;95.10
39925;DHT22;25592;49.986;11.618;2023-12-04T12:58:46;0.90;95.10
39925;DHT22;25592;49.986;11.618;2023-12-04T13:01:32;1.00;95.40
39925;DHT22;25592;49.986;11.618;2023-12-04T13:04:18;1.00;95.30
39925;DHT22;25592;49.986;11.618;2023-12-04T13:07:04;1.10;95.40
39925;DHT22;25592;49.986;11.618;2023-12-04T13:09:52;1.00;95.40
39925;DHT22;25592;49.986;11.618;2023-12-04T13:12:38;1.30;95.80
39925;DHT22;25592;49.986;11.618;2023-12-04T13:15:26;1.30;95.60
39925;DHT22;25592;49.986;11.618;2023-12-04T13:18:11;1.30;95.60
39925;DHT22;25592;49.986;11.618;2023-12-04T13:20:56;1.30;95.60
39925;DHT22;25592;49.986;11.618;2023-12-04T13:23:42;1.30;95.30
39925;DHT22;25592;49.986;11.618;2023-12-04T13:26:27;1.30;95.30
39925;DHT22;25592;49.986;11.618;2023-12-04T13:29:13;1.40;96.30
39925;DHT22;25592;49.986;11.618;2023-12-04T13:32:01;1.60;96.00
39925;DHT22;25592;49.986;11.618;2023-12-04T13:34:47;1.40;95.10
39925;DHT22;25592;49.986;11.618;2023-12-04T13:37:33;1.30;95.40
39925;DHT22;25592;49.986;11.618;2023-12-04T13:40:19;1.30;95.80
39925;DHT22;25592;49.986;11.618;2023-12-04T13:43:05;1.10;95.60
39925;DHT22;25592;49.986;11.618;2023-12-04T13:46:09;1.00;95.60
39925;DHT22;25592;49.986;11.618;2023-12-04T13:48:56;1.00;95.80
39925;DHT22;25592;49.986;11.618;2023-12-04T13:51:41;1.00;95.90
39925;DHT22;25592;49.986;11.618;2023-12-04T13:54:27;0.80;95.90
39925;DHT22;25592;49.986;11.618;2023-12-04T13:57:28;0.70;96.20
39925;DHT22;25592;49.986;11.618;2023-12-04T14:00:18;0.70;96.30
39925;DHT22;25592;49.986;11.618;2023-12-04T14:03:03;0.70;96.40
39925;DHT22;25592;49.986;11.618;2023-12-04T14:05:50;0.90;96.30
39925;DHT22;25592;49.986;11.618;2023-12-04T14:08:36;0.70;96.20
39925;DHT22;25592;49.986;11.618;2023-12-04T14:11:22;0.70;96.70
39925;DHT22;25592;49.986;11.618;2023-12-04T14:14:08;0.80;96.70
39925;DHT22;25592;49.986;11.618;2023-12-04T14:16:54;0.90;96.60
39925;DHT22;25592;49.986;11.618;2023-12-04T14:19:39;1.00;96.40
39925;DHT22;25592;49.986;11.618;2023-12-04T14:22:26;1.10;96.50
39925;DHT22;25592;49.986;11.618;2023-12-04T14:25:12;1.00;96.50
39925;DHT22;25592;49.986;11.618;2023-12-04T14:27:57;1.00;96.20
39925;DHT22;25592;49.986;11.618;2023-12-04T14:30:42;1.00;96.30
39925;DHT22;25592;49.986;11.618;2023-12-04T14:33:28;0.90;96.10
39925;DHT22;25592;49.986;11.618;2023-12-04T14:36:13;0.80;96.30
39925;DHT22;25592;49.986;11.618;2023-12-04T14:38:59;0.60;96.30
39925;DHT22;25592;49.986;11.618;2023-12-04T14:41:46;0.50;96.70
39925;DHT22;25592;49.986;11.618;2023-12-04T14:44:31;0.40;96.60
39925;DHT22;25592;49.986;11.618;2023-12-04T14:47:17;0.50;96.80
39925;DHT22;25592;49.986;11.618;2023-12-04T14:50:03;0.40;96.70
39925;DHT22;25592;49.986;11.618;2023-12-04T14:52:50;0.50;96.80
39925;DHT22;25592;49.986;11.618;2023-12-04T14:55:36;0.50;96.50
39925;DHT22;25592;49.986;11.618;2023-12-04T14:58:41;0.60;96.90
39925;DHT22;25592;49.986;11.618;2023-12-04T15:01:46;0.60;96.80
39925;DHT22;25592;49.986;11.618;2023-12-04T15:04:44;0.60;96.60
39925;DHT22;25592;49.986;11.618;2023-12-04T15:07:39;0.60;96.50
39925;DHT22;25592;49.986;11.618;2023-12-04T15:10:45;0.50;96.60
39925;DHT22;25592;49.986;11.618;2023-12-04T15:13:49;0.50;96.60
39925;DHT22;25592;49.986;11.618;2023-12-04T15:16:53;0.40;96.50
39925;DHT22;25592;49.986;11.618;2023-12-04T15:19:46;0.50;96.70
39925;DHT22;25592;49.986;11.618;2023-12-04T15:22:54;0.50;96.60
39925;DHT22;25592;49.986;11.618;2023-12-04T15:25:40;0.50;96.90
39925;DHT22;25592;49.986;11.618;2023-12-04T15:28:26;0.40;96.80
39925;DHT22;25592;49.986;11.618;2023-12-04T15:31:11;0.60;97.00
39925;DHT22;25592;49.986;11.618;2023-12-04T15:33:57;0.70;96.70
39925;DHT22;25592;49.986;11.618;2023-12-04T15:36:42;0.50;96.80
39925;DHT22;25592;49.986;11.618;2023-12-04T15:39:27;0.30;96.60
39925;DHT22;25592;49.986;11.618;2023-12-04T15:42:13;0.20;97.10
39925;DHT22;25592;49.986;11.618;2023-12-04T15:44:58;0.10;96.90
39925;DHT22;25592;49.986;11.618;2023-12-04T15:47:44;0.00;97.20
39925;DHT22;25592;49.986;11.618;2023-12-04T15:50:30;0.00;97.40
39925;DHT22;25592;49.986;11.618;2023-12-04T15:53:16;0.00;97.50
39925;DHT22;25592;49.986;11.618;2023-12-04T15:56:02;-0.10;97.40
39925;DHT22;25592;49.986;11.618;2023-12-04T15:58:51;-0.30;97.50
39925;DHT22;25592;49.986;11.618;2023-12-04T16:01:36;-0.40;97.90
39925;DHT22;25592;49.986;11.618;2023-12-04T16:04:22;-0.40;97.90
39925;DHT22;25592;49.986;11.618;2023-12-04T16:07:07;-0.40;97.90
39925;DHT22;25592;49.986;11.618;2023-12-04T16:09:53;-0.20;98.00
39925;DHT22;25592;49.986;11.618;2023-12-04T16:12:38;0.00;97.80
39925;DHT22;25592;49.986;11.618;2023-12-04T16:15:24;0.20;97.70
39925;DHT22;25592;49.986;11.618;2023-12-04T16:18:09;0.30;97.60
39925;DHT22;25592;49.986;11.618;2023-12-04T16:20:58;0.20;97.30
39925;DHT22;25592;49.986;11.618;2023-12-04T16:23:44;0.30;97.50
39925;DHT22;25592;49.986;11.618;2023-12-04T16:26:29;0.20;97.30
39925;DHT22;25592;49.986;11.618;2023-12-04T16:29:16;-0.10;97.20
39925;DHT22;25592;49.986;11.618;2023-12-04T16:32:01;-0.10;97.40
39925;DHT22;25592;49.986;11.618;2023-12-04T16:34:47;-0.20;97.40
39925;DHT22;25592;49.986;11.618;2023-12-04T16:37:32;-0.20;97.60
39925;DHT22;25592;49.986;11.618;2023-12-04T16:40:18;-0.30;97.60
39925;DHT22;25592;49.986;11.618;2023-12-04T16:43:03;-0.20;97.60
39925;DHT22;25592;49.986;11.618;2023-12-04T16:45:48;-0.20;97.50
39925;DHT22;25592;49.986;11.618;2023-12-04T16:48:34;-0.10;97.50
39925;DHT22;25592;49.986;11.618;2023-12-04T16:51:20;-0.10;97.50
39925;DHT22;25592;49.986;11.618;2023-12-04T16:54:06;0.00;97.40
39925;DHT22;25592;49.986;11.618;2023-12-04T16:56:51;0.00;97.60
39925;DHT22;25592;49.986;11.618;2023-12-04T16:59:37;0.10;97.70
39925;DHT22;25592;49.986;11.618;2023-12-04T17:02:23;0.20;97.40
39925;DHT22;25592;49.986;11.618;2023-12-04T17:05:09;0.20;97.30
39925;DHT22;25592;49.986;11.618;2023-12-04T17:07:56;0.30;97.30
39925;DHT22;25592;49.986;11.618;2023-12-04T17:10:43;0.40;97.30
39925;DHT22;25592;49.986;11.618;2023-12-04T17:13:28;0.40;97.00
39925;DHT22;25592;49.986;11.618;2023-12-04T17:16:14;0.50;97.20
39925;DHT22;25592;49.986;11.618;2023-12-04T17:19:00;0.40;96.90
39925;DHT22;25592;49.986;11.618;2023-12-04T17:21:45;0.20;97.10
39925;DHT22;25592;49.986;11.618;2023-12-04T17:24:31;0.10;97.10